createdAt,value
2018-11-04T00:00:46.657Z,5.80
2018-11-04T00:03:15.277Z,5.80
2018-11-04T00:05:43.908Z,5.80
2018-11-04T00:08:12.515Z,5.80
2018-11-04T00:10:41.152Z,5.70
2018-11-04T00:13:09.816Z,5.80
2018-11-04T00:15:38.482Z,5.70
2018-11-04T00:18:07.214Z,5.70
2018-11-04T00:20:35.831Z,5.70
2018-11-04T00:23:04.496Z,5.70
2018-11-04T00:25:33.097Z,5.60
2018-11-04T00:28:01.979Z,5.60
2018-11-04T00:30:30.577Z,5.60
2018-11-04T00:32:59.197Z,5.50
2018-11-04T00:35:27.889Z,5.50
2018-11-04T00:37:56.476Z,5.50
2018-11-04T00:40:25.100Z,5.50
2018-11-04T00:42:53.718Z,5.50
2018-11-04T00:45:22.478Z,5.50
2018-11-04T00:47:51.005Z,5.40
2018-11-04T00:50:19.628Z,5.40
2018-11-04T00:52:48.256Z,5.30
2018-11-04T00:55:16.958Z,5.30
2018-11-04T00:57:45.546Z,5.30
2018-11-04T01:00:16.339Z,5.30
2018-11-04T01:02:45.978Z,5.30
2018-11-04T01:05:14.610Z,5.20
2018-11-04T01:07:43.284Z,5.20
2018-11-04T01:10:12.417Z,5.20
2018-11-04T01:12:41.690Z,5.20
2018-11-04T01:15:11.683Z,5.10
2018-11-04T01:17:40.892Z,5.10
2018-11-04T01:20:11.580Z,5.10
2018-11-04T01:22:40.232Z,5.10
2018-11-04T01:25:09.061Z,5.10
2018-11-04T01:27:37.657Z,5.10
2018-11-04T01:30:08.093Z,5.10
2018-11-04T01:32:36.901Z,5.10
2018-11-04T01:35:05.999Z,5.00
2018-11-04T01:37:34.602Z,5.00
2018-11-04T01:40:03.316Z,5.00
2018-11-04T01:42:31.907Z,4.90
2018-11-04T01:45:00.570Z,4.90
2018-11-04T01:47:29.234Z,4.90
2018-11-04T01:49:57.830Z,4.90
2018-11-04T01:52:26.456Z,4.90
2018-11-04T01:54:55.715Z,4.90
2018-11-04T01:57:24.337Z,4.80
2018-11-04T01:59:52.950Z,4.80
2018-11-04T02:02:21.555Z,4.80
2018-11-04T02:04:50.203Z,4.80
2018-11-04T02:07:18.859Z,4.80
2018-11-04T02:09:47.489Z,4.80
2018-11-04T02:12:16.147Z,4.80
2018-11-04T02:14:44.758Z,4.80
2018-11-04T02:17:13.397Z,4.80
2018-11-04T02:19:41.995Z,4.70
2018-11-04T02:22:10.634Z,4.70
2018-11-04T02:24:39.259Z,4.70
2018-11-04T02:27:07.923Z,4.70
2018-11-04T02:29:36.480Z,4.70
2018-11-04T02:32:05.683Z,4.70
2018-11-04T02:34:34.273Z,4.70
2018-11-04T02:37:02.919Z,4.70
2018-11-04T02:39:31.517Z,4.70
2018-11-04T02:42:00.154Z,4.70
2018-11-04T02:44:28.748Z,4.60
2018-11-04T02:46:57.394Z,4.60
2018-11-04T02:49:25.998Z,4.60
2018-11-04T02:51:54.709Z,4.60
2018-11-04T02:54:23.328Z,4.60
2018-11-04T02:56:51.903Z,4.60
2018-11-04T02:59:20.627Z,4.60
2018-11-04T03:01:49.214Z,4.60
2018-11-04T03:04:17.838Z,4.60
2018-11-04T03:06:46.525Z,4.50
2018-11-04T03:09:15.124Z,4.60
2018-11-04T03:11:43.744Z,4.50
2018-11-04T03:14:12.360Z,4.50
2018-11-04T03:16:40.972Z,4.50
2018-11-04T03:19:09.598Z,4.50
2018-11-04T03:21:38.182Z,4.50
2018-11-04T03:24:06.886Z,4.40
2018-11-04T03:26:35.491Z,4.40
2018-11-04T03:29:04.108Z,4.40
2018-11-04T03:31:32.736Z,4.40
2018-11-04T03:34:01.402Z,4.40
2018-11-04T03:36:30.975Z,4.40
2018-11-04T03:38:59.609Z,4.30
2018-11-04T03:41:28.254Z,4.30
2018-11-04T03:43:56.846Z,4.30
2018-11-04T03:46:25.434Z,4.30
2018-11-04T03:48:54.011Z,4.30
2018-11-04T03:51:22.582Z,4.30
2018-11-04T03:53:51.173Z,4.20
2018-11-04T03:56:19.761Z,4.30
2018-11-04T03:58:48.379Z,4.30
2018-11-04T04:01:17.002Z,4.30
2018-11-04T04:03:45.607Z,4.30
2018-11-04T04:06:14.172Z,4.20
2018-11-04T04:08:42.757Z,4.20
2018-11-04T04:11:11.441Z,4.20
2018-11-04T04:13:40.081Z,4.20
2018-11-04T04:16:09.584Z,4.20
2018-11-04T04:18:38.160Z,4.10
2018-11-04T04:21:08.377Z,4.10
2018-11-04T04:23:37.900Z,4.10
2018-11-04T04:26:07.359Z,4.10
2018-11-04T04:28:35.936Z,4.00
2018-11-04T04:31:05.098Z,4.00
2018-11-04T04:33:33.733Z,4.10
2018-11-04T04:36:02.336Z,4.00
2018-11-04T04:38:30.938Z,4.00
2018-11-04T04:40:59.534Z,4.00
2018-11-04T04:43:28.113Z,4.00
2018-11-04T04:45:56.796Z,4.00
2018-11-04T04:48:25.459Z,4.00
2018-11-04T04:50:54.020Z,4.00
2018-11-04T04:53:24.679Z,4.00
2018-11-04T04:55:54.740Z,4.00
2018-11-04T04:58:23.590Z,4.00
2018-11-04T05:00:52.637Z,4.00
2018-11-04T05:03:21.254Z,4.10
2018-11-04T05:05:49.879Z,4.00
2018-11-04T05:08:18.461Z,4.00
2018-11-04T05:10:47.085Z,3.90
2018-11-04T05:13:15.737Z,4.00
2018-11-04T05:15:44.486Z,4.00
2018-11-04T05:18:13.066Z,3.90
2018-11-04T05:20:41.700Z,3.90
2018-11-04T05:23:10.329Z,3.90
2018-11-04T05:25:38.940Z,3.90
2018-11-04T05:28:08.129Z,3.90
2018-11-04T05:30:36.936Z,3.90
2018-11-04T05:33:05.848Z,3.90
2018-11-04T05:35:34.451Z,3.90
2018-11-04T05:38:03.111Z,3.90
2018-11-04T05:40:31.683Z,3.80
2018-11-04T05:43:00.328Z,3.80
2018-11-04T05:45:28.913Z,3.80
2018-11-04T05:47:57.508Z,3.80
2018-11-04T05:50:26.090Z,3.80
2018-11-04T05:52:54.714Z,3.70
2018-11-04T05:55:23.302Z,3.70
2018-11-04T05:57:51.937Z,3.70
2018-11-04T06:00:20.559Z,3.70
2018-11-04T06:02:49.208Z,3.70
2018-11-04T06:05:17.828Z,3.70
2018-11-04T06:07:46.535Z,3.70
2018-11-04T06:10:15.136Z,3.70
2018-11-04T06:12:44.146Z,3.70
2018-11-04T06:15:12.818Z,3.70
2018-11-04T06:17:41.494Z,3.70
2018-11-04T06:20:11.495Z,3.70
2018-11-04T06:22:40.599Z,3.70
2018-11-04T06:25:09.356Z,3.70
2018-11-04T06:27:38.056Z,3.60
2018-11-04T06:30:08.592Z,3.60
2018-11-04T06:32:37.201Z,3.60
2018-11-04T06:35:06.701Z,3.60
2018-11-04T06:37:35.522Z,3.60
2018-11-04T06:40:04.316Z,3.60
2018-11-04T06:42:33.032Z,3.60
2018-11-04T06:45:01.614Z,3.70
2018-11-04T06:47:30.383Z,3.70
2018-11-04T06:49:59.101Z,3.70
2018-11-04T06:52:27.817Z,3.80
2018-11-04T06:54:57.052Z,3.70
2018-11-04T06:57:25.672Z,3.80
2018-11-04T06:59:54.478Z,3.80
2018-11-04T07:02:23.117Z,3.90
2018-11-04T07:04:51.792Z,4.00
2018-11-04T07:07:20.470Z,4.00
2018-11-04T07:09:49.106Z,4.10
2018-11-04T07:12:18.822Z,4.10
2018-11-04T07:14:48.869Z,4.20
2018-11-04T07:17:18.468Z,4.20
2018-11-04T07:19:48.726Z,4.20
2018-11-04T07:22:17.340Z,4.20
2018-11-04T07:24:46.600Z,4.30
2018-11-04T07:27:16.469Z,4.30
2018-11-04T07:29:45.118Z,4.40
2018-11-04T07:32:13.836Z,4.40
2018-11-04T07:34:42.870Z,4.50
2018-11-04T07:37:11.820Z,4.50
2018-11-04T07:39:40.559Z,4.60
2018-11-04T07:42:09.246Z,4.60
2018-11-04T07:44:40.093Z,4.70
2018-11-04T07:47:08.823Z,4.70
2018-11-04T07:49:37.556Z,4.70
2018-11-04T07:52:06.405Z,4.80
2018-11-04T07:54:35.186Z,4.80
2018-11-04T07:57:03.904Z,4.90
2018-11-04T07:59:32.525Z,4.90
2018-11-04T08:02:01.580Z,4.90
2018-11-04T08:04:30.356Z,4.90
2018-11-04T08:06:59.064Z,5.00
2018-11-04T08:09:27.920Z,5.00
2018-11-04T08:11:56.643Z,5.10
2018-11-04T08:14:25.306Z,5.10
2018-11-04T08:16:53.949Z,5.20
2018-11-04T08:19:22.620Z,5.30
2018-11-04T08:21:51.311Z,5.30
2018-11-04T08:24:20.018Z,5.40
2018-11-04T08:26:48.702Z,5.50
2018-11-04T08:29:17.569Z,5.50
2018-11-04T08:31:46.242Z,5.60
2018-11-04T08:34:14.995Z,5.60
2018-11-04T08:36:43.685Z,5.70
2018-11-04T08:39:12.725Z,5.70
2018-11-04T08:41:41.419Z,5.80
2018-11-04T08:44:11.962Z,5.90
2018-11-04T08:46:40.736Z,6.00
2018-11-04T08:49:09.704Z,6.10
2018-11-04T08:51:38.446Z,6.10
2018-11-04T08:54:07.072Z,6.10
2018-11-04T08:56:35.713Z,6.10
2018-11-04T08:59:04.466Z,6.20
2018-11-04T09:01:33.292Z,6.30
2018-11-04T09:04:02.041Z,6.30
2018-11-04T09:06:30.819Z,6.40
2018-11-04T09:08:59.688Z,6.50
2018-11-04T09:11:28.339Z,6.50
2018-11-04T09:13:57.104Z,6.60
2018-11-04T09:16:25.756Z,6.70
2018-11-04T09:18:54.402Z,6.80
2018-11-04T09:21:23.041Z,6.80
2018-11-04T09:23:51.834Z,6.90
2018-11-04T09:26:20.711Z,7.00
2018-11-04T09:28:49.363Z,7.10
2018-11-04T09:31:18.009Z,7.10
2018-11-04T09:33:46.626Z,7.20
2018-11-04T09:36:15.465Z,7.30
2018-11-04T09:38:43.902Z,7.40
2018-11-04T09:41:12.795Z,7.40
2018-11-04T09:43:41.471Z,7.40
2018-11-04T09:46:10.156Z,7.40
2018-11-04T09:48:39.202Z,7.40
2018-11-04T09:51:07.860Z,7.50
2018-11-04T09:53:36.570Z,7.60
2018-11-04T09:56:05.981Z,7.70
2018-11-04T09:58:34.714Z,7.90
2018-11-04T10:01:03.397Z,8.00
2018-11-04T10:03:32.699Z,7.90
2018-11-04T10:06:01.326Z,8.00
2018-11-04T10:08:30.088Z,8.00
2018-11-04T10:10:58.902Z,8.10
2018-11-04T10:13:27.651Z,8.20
2018-11-04T10:15:56.270Z,8.10
2018-11-04T10:18:24.945Z,8.20
2018-11-04T10:20:54.243Z,8.50
2018-11-04T10:23:22.490Z,8.70
2018-11-04T10:25:51.314Z,8.80
2018-11-04T10:28:20.075Z,8.70
2018-11-04T10:30:48.657Z,8.80
2018-11-04T10:33:17.403Z,9.00
2018-11-04T10:35:46.035Z,9.10
2018-11-04T10:38:14.633Z,9.30
2018-11-04T10:40:43.343Z,9.20
2018-11-04T10:43:12.031Z,9.10
2018-11-04T10:45:40.705Z,9.10
2018-11-04T10:48:09.530Z,9.20
2018-11-04T10:50:38.154Z,9.20
2018-11-04T10:53:09.996Z,9.40
2018-11-04T10:55:38.721Z,9.40
2018-11-04T10:58:07.477Z,9.50
2018-11-04T11:00:41.419Z,9.60
2018-11-04T11:03:10.081Z,9.70
2018-11-04T11:05:38.762Z,9.70
2018-11-04T11:08:07.565Z,9.70
2018-11-04T11:10:36.261Z,9.80
2018-11-04T11:13:05.816Z,9.80
2018-11-04T11:15:34.494Z,9.80
2018-11-04T11:18:03.178Z,9.70
2018-11-04T11:20:31.913Z,9.60
2018-11-04T11:23:00.836Z,9.50
2018-11-04T11:25:29.337Z,9.40
2018-11-04T11:27:58.098Z,9.30
2018-11-04T11:30:26.809Z,9.40
2018-11-04T11:32:55.959Z,9.40
2018-11-04T11:35:24.744Z,9.40
2018-11-04T11:37:53.643Z,9.50
2018-11-04T11:40:22.329Z,9.70
2018-11-04T11:42:51.022Z,9.80
2018-11-04T11:45:19.790Z,9.90
2018-11-04T11:47:48.528Z,9.90
2018-11-04T11:50:17.206Z,10.00
2018-11-04T11:52:45.950Z,10.00
2018-11-04T11:55:14.686Z,10.00
2018-11-04T11:57:43.498Z,10.00
2018-11-04T12:00:12.566Z,9.90
2018-11-04T12:02:41.667Z,10.00
2018-11-04T12:05:10.639Z,10.00
2018-11-04T12:07:39.468Z,10.00
2018-11-04T12:10:10.404Z,10.10
2018-11-04T12:12:39.059Z,10.20
2018-11-04T12:15:08.594Z,10.20
2018-11-04T12:17:37.266Z,10.40
2018-11-04T12:20:07.537Z,10.40
2018-11-04T12:22:36.263Z,10.50
2018-11-04T12:25:05.530Z,10.60
2018-11-04T12:27:34.392Z,10.60
2018-11-04T12:30:03.048Z,10.70
2018-11-04T12:32:31.716Z,10.80
2018-11-04T12:35:00.511Z,10.90
2018-11-04T12:37:29.130Z,11.00
2018-11-04T12:39:57.776Z,11.20
2018-11-04T12:42:26.409Z,11.30
2018-11-04T12:44:55.935Z,11.20
2018-11-04T12:47:24.651Z,11.30
2018-11-04T12:49:53.382Z,11.40
2018-11-04T12:52:22.055Z,11.50
2018-11-04T12:54:50.717Z,11.60
2018-11-04T12:57:19.410Z,11.50
2018-11-04T12:59:48.078Z,11.50
2018-11-04T13:02:16.721Z,11.40
2018-11-04T13:04:45.372Z,11.40
2018-11-04T13:07:14.141Z,11.40
2018-11-04T13:09:42.823Z,11.60
2018-11-04T13:12:11.545Z,11.60
2018-11-04T13:14:40.309Z,11.60
2018-11-04T13:17:08.980Z,11.60
2018-11-04T13:19:37.732Z,11.50
2018-11-04T13:22:06.446Z,11.40
2018-11-04T13:24:35.292Z,11.30
2018-11-04T13:27:04.075Z,11.30
2018-11-04T13:29:32.870Z,11.30
2018-11-04T13:32:01.545Z,11.30
2018-11-04T13:34:30.178Z,11.50
2018-11-04T13:36:58.897Z,11.50
2018-11-04T13:39:27.541Z,11.70
2018-11-04T13:41:56.206Z,11.70
2018-11-04T13:44:25.879Z,11.60
2018-11-04T13:46:54.605Z,11.50
2018-11-04T13:49:23.313Z,11.60
2018-11-04T13:51:52.073Z,12.30
2018-11-04T13:54:20.712Z,12.50
2018-11-04T13:56:49.470Z,12.40
2018-11-04T13:59:18.151Z,12.20
2018-11-04T14:01:46.909Z,12.00
2018-11-04T14:04:15.670Z,12.20
2018-11-04T14:06:44.261Z,12.20
2018-11-04T14:09:13.154Z,12.00
2018-11-04T14:11:41.816Z,11.90
2018-11-04T14:14:10.462Z,11.80
2018-11-04T14:16:42.781Z,11.60
2018-11-04T14:19:11.427Z,11.50
2018-11-04T14:21:40.063Z,11.40
2018-11-04T14:24:08.731Z,11.40
2018-11-04T14:26:37.368Z,11.30
2018-11-04T14:29:06.157Z,11.20
2018-11-04T14:31:34.829Z,11.20
2018-11-04T14:34:03.634Z,11.20
2018-11-04T14:36:32.319Z,11.20
2018-11-04T14:39:01.080Z,11.10
2018-11-04T14:41:29.802Z,11.10
2018-11-04T14:43:58.506Z,11.00
2018-11-04T14:46:27.181Z,11.00
2018-11-04T14:48:56.284Z,11.00
2018-11-04T14:51:24.942Z,11.00
2018-11-04T14:53:54.032Z,11.00
2018-11-04T14:56:25.559Z,11.00
2018-11-04T14:58:54.307Z,11.00
2018-11-04T15:01:23.037Z,11.00
2018-11-04T15:03:52.091Z,10.90
2018-11-04T15:06:21.158Z,10.90
2018-11-04T15:08:49.979Z,10.80
2018-11-04T15:11:18.695Z,10.80
2018-11-04T15:13:47.427Z,10.80
2018-11-04T15:16:16.591Z,10.80
2018-11-04T15:18:45.842Z,10.80
2018-11-04T15:21:14.475Z,10.70
2018-11-04T15:23:43.309Z,10.70
2018-11-04T15:26:12.048Z,10.60
2018-11-04T15:28:41.043Z,10.60
2018-11-04T15:31:10.044Z,10.50
2018-11-04T15:33:38.968Z,10.50
2018-11-04T15:36:08.471Z,10.50
2018-11-04T15:38:37.424Z,10.50
2018-11-04T15:41:06.525Z,10.50
2018-11-04T15:43:35.261Z,10.50
2018-11-04T15:46:04.338Z,10.50
2018-11-04T15:48:33.313Z,10.50
2018-11-04T15:51:02.453Z,10.50
2018-11-04T15:53:31.274Z,10.50
2018-11-04T15:55:59.932Z,10.50
2018-11-04T15:58:28.950Z,10.50
2018-11-04T16:00:57.625Z,10.50
2018-11-04T16:03:26.356Z,10.50
2018-11-04T16:05:55.157Z,10.50
2018-11-04T16:08:23.731Z,10.40
2018-11-04T16:10:52.358Z,10.40
2018-11-04T16:13:21.014Z,10.40
2018-11-04T16:15:49.676Z,10.40
2018-11-04T16:18:18.483Z,10.40
2018-11-04T16:20:47.012Z,10.40
2018-11-04T16:23:15.873Z,10.40
2018-11-04T16:25:44.569Z,10.40
2018-11-04T16:28:13.231Z,10.40
2018-11-04T16:30:41.916Z,10.40
2018-11-04T16:33:10.601Z,10.40
2018-11-04T16:35:39.246Z,10.40
2018-11-04T16:38:07.993Z,10.40
2018-11-04T16:40:36.917Z,10.40
2018-11-04T16:43:06.309Z,10.40
2018-11-04T16:45:35.074Z,10.40
2018-11-04T16:48:03.822Z,10.40
2018-11-04T16:50:32.455Z,10.40
2018-11-04T16:53:01.242Z,10.40
2018-11-04T16:55:29.910Z,10.40
2018-11-04T16:57:58.597Z,10.40
2018-11-04T17:00:27.326Z,10.40
2018-11-04T17:02:56.001Z,10.40
2018-11-04T17:05:24.983Z,10.40
2018-11-04T17:07:53.964Z,10.40
2018-11-04T17:10:22.675Z,10.40
2018-11-04T17:12:51.331Z,10.40
2018-11-04T17:15:22.242Z,10.40
2018-11-04T17:17:50.973Z,10.40
2018-11-04T17:20:19.604Z,10.40
2018-11-04T17:22:48.263Z,10.40
2018-11-04T17:25:16.895Z,10.40
2018-11-04T17:27:46.370Z,10.40
2018-11-04T17:30:18.368Z,10.40
2018-11-04T17:32:47.451Z,10.40
2018-11-04T17:35:16.857Z,10.40
2018-11-04T17:37:45.940Z,10.40
2018-11-04T17:40:15.432Z,10.40
2018-11-04T17:42:44.338Z,10.40
2018-11-04T17:45:14.369Z,10.40
2018-11-04T17:47:43.176Z,10.40
2018-11-04T17:50:15.786Z,10.40
2018-11-04T17:52:45.270Z,10.40
2018-11-04T17:55:14.191Z,10.40
2018-11-04T17:57:43.281Z,10.40
2018-11-04T18:00:12.698Z,10.40
2018-11-04T18:02:42.302Z,10.40
2018-11-04T18:05:11.804Z,10.40
2018-11-04T18:07:40.914Z,10.40
2018-11-04T18:10:10.206Z,10.40
2018-11-04T18:12:39.185Z,10.40
2018-11-04T18:15:09.780Z,10.40
2018-11-04T18:17:38.624Z,10.40
2018-11-04T18:25:02.994Z,10.40
2018-11-04T18:27:31.690Z,10.40
2018-11-04T18:30:00.474Z,10.40
2018-11-04T18:32:29.386Z,10.40
2018-11-04T18:34:58.321Z,10.40
2018-11-04T18:37:27.186Z,10.40
2018-11-04T18:39:55.885Z,10.40
2018-11-04T18:42:24.625Z,10.40
2018-11-04T18:44:53.689Z,10.40
2018-11-04T18:47:22.979Z,10.40
2018-11-04T18:49:51.670Z,10.40
2018-11-04T18:52:20.342Z,10.40
2018-11-04T18:54:55.295Z,10.50
2018-11-04T18:57:23.972Z,10.50
2018-11-04T18:59:52.627Z,10.50
2018-11-04T19:02:23.974Z,10.50
2018-11-04T19:04:52.835Z,10.50
2018-11-04T19:07:22.383Z,10.50
2018-11-04T19:09:51.416Z,10.50
2018-11-04T19:12:20.062Z,10.50
2018-11-04T19:14:48.778Z,10.50
2018-11-04T19:17:17.453Z,10.50
2018-11-04T19:19:46.105Z,10.50
2018-11-04T19:22:14.788Z,10.50
2018-11-04T19:24:43.446Z,10.50
2018-11-04T19:27:12.131Z,10.50
2018-11-04T19:29:40.835Z,10.40
2018-11-04T19:32:09.559Z,10.40
2018-11-04T19:34:38.528Z,10.40
2018-11-04T19:37:07.189Z,10.30
2018-11-04T19:39:35.878Z,10.20
2018-11-04T19:42:04.743Z,10.20
2018-11-04T19:44:33.410Z,10.20
2018-11-04T19:47:02.093Z,10.20
2018-11-04T19:49:30.779Z,10.20
2018-11-04T19:51:59.428Z,10.20
2018-11-04T19:54:28.122Z,10.10
2018-11-04T19:56:56.811Z,10.00
2018-11-04T19:59:25.510Z,9.90
2018-11-04T20:01:54.169Z,9.80
2018-11-04T20:04:22.836Z,9.80
2018-11-04T20:06:51.554Z,9.80
2018-11-04T20:09:20.243Z,9.70
2018-11-04T20:11:48.902Z,9.70
2018-11-04T20:14:20.838Z,9.70
2018-11-04T20:16:50.536Z,9.60
2018-11-04T20:19:24.880Z,9.60
2018-11-04T20:21:53.982Z,9.50
2018-11-04T20:24:27.914Z,9.50
2018-11-04T20:26:56.633Z,9.50
2018-11-04T20:29:25.309Z,9.50
2018-11-04T20:31:59.134Z,9.50
2018-11-04T20:34:28.696Z,9.40
2018-11-04T20:36:57.338Z,9.40
2018-11-04T20:39:31.149Z,9.40
2018-11-04T20:42:00.014Z,9.40
2018-11-04T20:44:28.675Z,9.30
2018-11-04T20:46:57.333Z,9.30
2018-11-04T20:49:31.297Z,9.30
2018-11-04T20:52:00.105Z,9.20
2018-11-04T20:54:28.714Z,9.20
2018-11-04T20:57:02.532Z,9.20
2018-11-04T20:59:31.189Z,9.20
2018-11-04T21:01:59.854Z,9.10
2018-11-04T21:04:28.537Z,9.10
2018-11-04T21:06:57.207Z,9.10
2018-11-04T21:09:25.915Z,9.10
2018-11-04T21:11:54.611Z,9.10
2018-11-04T21:14:23.379Z,9.10
2018-11-04T21:16:52.020Z,9.10
2018-11-04T21:19:20.714Z,9.10
2018-11-04T21:21:49.390Z,9.10
2018-11-04T21:24:18.137Z,9.10
2018-11-04T21:26:46.800Z,9.00
2018-11-04T21:29:15.812Z,9.00
2018-11-04T21:31:44.795Z,9.00
2018-11-04T21:34:13.491Z,9.00
2018-11-04T21:36:42.253Z,9.00
2018-11-04T21:39:11.565Z,9.00
2018-11-04T21:41:40.719Z,9.00
2018-11-04T21:44:09.730Z,9.00
2018-11-04T21:46:38.945Z,9.00
2018-11-04T21:49:07.687Z,9.00
2018-11-04T21:51:38.157Z,8.90
2018-11-04T21:54:06.874Z,8.90
2018-11-04T21:56:35.704Z,8.90
2018-11-04T21:59:04.303Z,8.90
2018-11-04T22:01:32.988Z,8.80
2018-11-04T22:04:01.933Z,8.80
2018-11-04T22:06:30.518Z,8.80
2018-11-04T22:09:00.230Z,8.80
2018-11-04T22:11:28.879Z,8.70
2018-11-04T22:13:57.645Z,8.70
2018-11-04T22:16:26.177Z,8.70
2018-11-04T22:18:54.791Z,8.70
2018-11-04T22:21:23.421Z,8.60
2018-11-04T22:23:52.054Z,8.60
2018-11-04T22:26:20.732Z,8.60
2018-11-04T22:28:49.387Z,8.60
2018-11-04T22:31:17.972Z,8.60
2018-11-04T22:33:46.603Z,8.60
2018-11-04T22:36:15.232Z,8.60
2018-11-04T22:38:43.904Z,8.60
2018-11-04T22:41:12.597Z,8.60
2018-11-04T22:43:41.230Z,8.60
2018-11-04T22:46:09.863Z,8.60
2018-11-04T22:48:38.484Z,8.60
2018-11-04T22:51:07.231Z,8.60
2018-11-04T22:53:35.852Z,8.70
2018-11-04T22:56:04.786Z,8.80
2018-11-04T22:58:33.422Z,8.90
2018-11-04T23:01:03.060Z,9.00
2018-11-04T23:03:31.668Z,9.10
2018-11-04T23:06:04.247Z,9.20
2018-11-04T23:08:32.952Z,9.30
2018-11-04T23:11:01.633Z,9.30
2018-11-04T23:13:30.299Z,9.30
2018-11-04T23:15:59.040Z,9.40
2018-11-04T23:18:27.682Z,9.40
2018-11-04T23:20:56.323Z,9.40
2018-11-04T23:23:25.090Z,9.40
2018-11-04T23:25:53.679Z,9.50
2018-11-04T23:28:22.322Z,9.50
2018-11-04T23:30:50.950Z,9.50
2018-11-04T23:33:19.564Z,9.50
2018-11-04T23:35:48.159Z,9.60
2018-11-04T23:38:16.785Z,9.60
2018-11-04T23:40:45.418Z,9.60
2018-11-04T23:43:14.068Z,9.60
2018-11-04T23:45:42.653Z,9.60
2018-11-04T23:48:11.234Z,9.60
2018-11-04T23:50:39.838Z,9.60
2018-11-04T23:53:08.468Z,9.70
2018-11-04T23:55:37.069Z,9.70
2018-11-04T23:58:06.051Z,9.70
